sensor_id;sensor_type;location;lat;lon;timestamp;temperature;humidity
27544;DHT22;17996;51.056;3.656;2023-06-10T00:02:04;24.70;99.90
27544;DHT22;17996;51.056;3.656;2023-06-10T00:04:29;24.70;99.90
27544;DHT22;17996;51.056;3.656;2023-06-10T00:06:55;24.70;99.90
27544;DHT22;17996;51.056;3.656;2023-06-10T00:09:21;24.60;99.90
27544;DHT22;17996;51.056;3.656;2023-06-10T00:11:47;24.60;99.90
27544;DHT22;17996;51.056;3.656;2023-06-10T00:14:13;24.60;99.90
27544;DHT22;17996;51.056;3.656;2023-06-10T00:16:39;24.60;99.90
27544;DHT22;17996;51.056;3.656;2023-06-10T00:19:05;24.60;99.90
27544;DHT22;17996;51.056;3.656;2023-06-10T00:21:32;24.60;99.90
27544;DHT22;17996;51.056;3.656;2023-06-10T00:24:06;24.50;99.90
27544;DHT22;17996;51.056;3.656;2023-06-10T00:26:34;24.50;99.90
27544;DHT22;17996;51.056;3.656;2023-06-10T00:29:00;24.50;99.90
27544;DHT22;17996;51.056;3.656;2023-06-10T00:31:25;24.50;99.90
27544;DHT22;17996;51.056;3.656;2023-06-10T00:33:52;24.40;99.90
27544;DHT22;17996;51.056;3.656;2023-06-10T00:36:19;24.40;99.90
27544;DHT22;17996;51.056;3.656;2023-06-10T00:38:44;24.40;99.90
27544;DHT22;17996;51.056;3.656;2023-06-10T00:41:10;24.40;99.90
27544;DHT22;17996;51.056;3.656;2023-06-10T00:43:36;24.30;99.90
27544;DHT22;17996;51.056;3.656;2023-06-10T00:46:02;24.30;99.90
27544;DHT22;17996;51.056;3.656;2023-06-10T00:48:28;24.30;99.90
27544;DHT22;17996;51.056;3.656;2023-06-10T00:50:53;24.30;99.90
27544;DHT22;17996;51.056;3.656;2023-06-10T00:53:20;24.30;99.90
27544;DHT22;17996;51.056;3.656;2023-06-10T00:55:46;24.30;99.90
27544;DHT22;17996;51.056;3.656;2023-06-10T00:58:12;24.30;99.90
27544;DHT22;17996;51.056;3.656;2023-06-10T01:00:39;24.30;99.90
27544;DHT22;17996;51.056;3.656;2023-06-10T01:03:04;24.20;99.90
27544;DHT22;17996;51.056;3.656;2023-06-10T01:05:37;24.20;99.90
27544;DHT22;17996;51.056;3.656;2023-06-10T01:08:28;24.20;99.90
27544;DHT22;17996;51.056;3.656;2023-06-10T01:11:00;24.20;99.90
27544;DHT22;17996;51.056;3.656;2023-06-10T01:13:27;24.20;99.90
27544;DHT22;17996;51.056;3.656;2023-06-10T01:15:58;24.10;99.90
27544;DHT22;17996;51.056;3.656;2023-06-10T01:18:32;24.10;99.90
27544;DHT22;17996;51.056;3.656;2023-06-10T01:20:58;24.10;99.90
27544;DHT22;17996;51.056;3.656;2023-06-10T01:23:24;24.10;99.90
27544;DHT22;17996;51.056;3.656;2023-06-10T01:25:59;24.00;99.90
27544;DHT22;17996;51.056;3.656;2023-06-10T01:28:27;24.00;99.90
27544;DHT22;17996;51.056;3.656;2023-06-10T01:31:16;24.00;99.90
27544;DHT22;17996;51.056;3.656;2023-06-10T01:33:46;24.00;99.90
27544;DHT22;17996;51.056;3.656;2023-06-10T01:36:13;23.90;99.90
27544;DHT22;17996;51.056;3.656;2023-06-10T01:38:43;23.90;99.90
27544;DHT22;17996;51.056;3.656;2023-06-10T01:41:11;23.90;99.90
27544;DHT22;17996;51.056;3.656;2023-06-10T01:43:38;23.90;99.90
27544;DHT22;17996;51.056;3.656;2023-06-10T01:46:05;23.80;99.90
27544;DHT22;17996;51.056;3.656;2023-06-10T01:48:31;23.90;99.90
27544;DHT22;17996;51.056;3.656;2023-06-10T01:50:57;23.90;99.90
27544;DHT22;17996;51.056;3.656;2023-06-10T01:53:23;23.80;99.90
27544;DHT22;17996;51.056;3.656;2023-06-10T01:55:49;23.80;99.90
27544;DHT22;17996;51.056;3.656;2023-06-10T01:58:14;23.80;99.90
27544;DHT22;17996;51.056;3.656;2023-06-10T02:00:40;23.80;99.90
27544;DHT22;17996;51.056;3.656;2023-06-10T02:03:06;23.80;99.90
27544;DHT22;17996;51.056;3.656;2023-06-10T02:05:31;23.80;99.90
27544;DHT22;17996;51.056;3.656;2023-06-10T02:07:57;23.70;99.90
27544;DHT22;17996;51.056;3.656;2023-06-10T02:10:23;23.70;99.90
27544;DHT22;17996;51.056;3.656;2023-06-10T02:12:49;23.70;99.90
27544;DHT22;17996;51.056;3.656;2023-06-10T02:15:15;23.70;99.90
27544;DHT22;17996;51.056;3.656;2023-06-10T02:17:40;23.70;99.90
27544;DHT22;17996;51.056;3.656;2023-06-10T02:20:06;23.60;99.90
27544;DHT22;17996;51.056;3.656;2023-06-10T02:22:33;23.60;99.90
27544;DHT22;17996;51.056;3.656;2023-06-10T02:24:59;23.60;99.90
27544;DHT22;17996;51.056;3.656;2023-06-10T02:27:25;23.60;99.90
27544;DHT22;17996;51.056;3.656;2023-06-10T02:29:51;23.60;99.90
27544;DHT22;17996;51.056;3.656;2023-06-10T02:32:16;23.60;99.90
27544;DHT22;17996;51.056;3.656;2023-06-10T02:34:42;23.60;99.90
27544;DHT22;17996;51.056;3.656;2023-06-10T02:37:09;23.50;99.90
27544;DHT22;17996;51.056;3.656;2023-06-10T02:39:35;23.50;99.90
27544;DHT22;17996;51.056;3.656;2023-06-10T02:42:00;23.50;99.90
27544;DHT22;17996;51.056;3.656;2023-06-10T02:44:26;23.50;99.90
27544;DHT22;17996;51.056;3.656;2023-06-10T02:46:52;23.50;99.90
27544;DHT22;17996;51.056;3.656;2023-06-10T02:49:17;23.40;99.90
27544;DHT22;17996;51.056;3.656;2023-06-10T02:51:43;23.50;99.90
27544;DHT22;17996;51.056;3.656;2023-06-10T02:54:09;23.40;99.90
27544;DHT22;17996;51.056;3.656;2023-06-10T02:56:35;23.40;99.90
27544;DHT22;17996;51.056;3.656;2023-06-10T02:59:01;23.40;99.90
27544;DHT22;17996;51.056;3.656;2023-06-10T03:01:27;23.40;99.90
27544;DHT22;17996;51.056;3.656;2023-06-10T03:03:53;23.30;99.90
27544;DHT22;17996;51.056;3.656;2023-06-10T03:06:21;23.30;99.90
27544;DHT22;17996;51.056;3.656;2023-06-10T03:08:49;23.30;99.90
27544;DHT22;17996;51.056;3.656;2023-06-10T03:11:15;23.30;99.90
27544;DHT22;17996;51.056;3.656;2023-06-10T03:13:41;23.30;99.90
27544;DHT22;17996;51.056;3.656;2023-06-10T03:16:06;23.30;99.90
27544;DHT22;17996;51.056;3.656;2023-06-10T03:18:33;23.30;99.90
27544;DHT22;17996;51.056;3.656;2023-06-10T03:20:59;23.30;99.90
27544;DHT22;17996;51.056;3.656;2023-06-10T03:23:25;23.20;99.90
27544;DHT22;17996;51.056;3.656;2023-06-10T03:25:50;23.20;99.90
27544;DHT22;17996;51.056;3.656;2023-06-10T03:28:16;23.20;99.90
27544;DHT22;17996;51.056;3.656;2023-06-10T03:30:41;23.10;99.90
27544;DHT22;17996;51.056;3.656;2023-06-10T03:33:07;23.10;99.90
27544;DHT22;17996;51.056;3.656;2023-06-10T03:35:33;23.10;99.90
27544;DHT22;17996;51.056;3.656;2023-06-10T03:38:00;23.10;99.90
27544;DHT22;17996;51.056;3.656;2023-06-10T03:40:25;23.00;99.90
27544;DHT22;17996;51.056;3.656;2023-06-10T03:42:51;23.00;99.90
27544;DHT22;17996;51.056;3.656;2023-06-10T03:45:17;23.00;99.90
27544;DHT22;17996;51.056;3.656;2023-06-10T03:47:43;23.00;99.90
27544;DHT22;17996;51.056;3.656;2023-06-10T03:50:10;23.00;99.90
27544;DHT22;17996;51.056;3.656;2023-06-10T03:52:37;23.00;99.90
27544;DHT22;17996;51.056;3.656;2023-06-10T03:55:03;23.00;99.90
27544;DHT22;17996;51.056;3.656;2023-06-10T03:57:29;23.00;99.90
27544;DHT22;17996;51.056;3.656;2023-06-10T03:59:55;22.90;99.90
27544;DHT22;17996;51.056;3.656;2023-06-10T04:02:21;22.90;99.90
27544;DHT22;17996;51.056;3.656;2023-06-10T04:04:48;22.90;99.90
27544;DHT22;17996;51.056;3.656;2023-06-10T04:07:13;22.90;99.90
27544;DHT22;17996;51.056;3.656;2023-06-10T04:09:39;22.90;99.90
27544;DHT22;17996;51.056;3.656;2023-06-10T04:12:05;22.80;99.90
27544;DHT22;17996;51.056;3.656;2023-06-10T04:14:36;22.80;99.90
27544;DHT22;17996;51.056;3.656;2023-06-10T04:17:04;22.80;99.90
27544;DHT22;17996;51.056;3.656;2023-06-10T04:19:32;22.80;99.90
27544;DHT22;17996;51.056;3.656;2023-06-10T04:22:00;22.80;99.90
27544;DHT22;17996;51.056;3.656;2023-06-10T04:24:26;22.80;99.90
27544;DHT22;17996;51.056;3.656;2023-06-10T04:26:51;22.80;99.90
27544;DHT22;17996;51.056;3.656;2023-06-10T04:29:17;22.80;99.90
27544;DHT22;17996;51.056;3.656;2023-06-10T04:31:43;22.80;99.90
27544;DHT22;17996;51.056;3.656;2023-06-10T04:34:08;22.80;99.90
27544;DHT22;17996;51.056;3.656;2023-06-10T04:36:34;22.70;99.90
27544;DHT22;17996;51.056;3.656;2023-06-10T04:38:59;22.80;99.90
27544;DHT22;17996;51.056;3.656;2023-06-10T04:41:25;22.80;99.90
27544;DHT22;17996;51.056;3.656;2023-06-10T04:43:52;22.80;99.90
27544;DHT22;17996;51.056;3.656;2023-06-10T04:46:19;22.80;99.90
27544;DHT22;17996;51.056;3.656;2023-06-10T04:48:44;22.70;99.90
27544;DHT22;17996;51.056;3.656;2023-06-10T04:51:13;22.80;99.90
27544;DHT22;17996;51.056;3.656;2023-06-10T04:53:39;22.70;99.90
27544;DHT22;17996;51.056;3.656;2023-06-10T04:56:05;22.70;99.90
27544;DHT22;17996;51.056;3.656;2023-06-10T04:58:31;22.70;99.90
27544;DHT22;17996;51.056;3.656;2023-06-10T05:00:56;22.70;99.90
27544;DHT22;17996;51.056;3.656;2023-06-10T05:03:22;22.70;99.90
27544;DHT22;17996;51.056;3.656;2023-06-10T05:05:48;22.70;99.90
27544;DHT22;17996;51.056;3.656;2023-06-10T05:08:13;22.70;99.90
27544;DHT22;17996;51.056;3.656;2023-06-10T05:10:39;22.70;99.90
27544;DHT22;17996;51.056;3.656;2023-06-10T05:13:04;22.70;99.90
27544;DHT22;17996;51.056;3.656;2023-06-10T05:15:30;22.70;99.90
27544;DHT22;17996;51.056;3.656;2023-06-10T05:17:59;22.70;99.90
27544;DHT22;17996;51.056;3.656;2023-06-10T05:20:25;22.80;99.90
27544;DHT22;17996;51.056;3.656;2023-06-10T05:22:51;22.70;99.90
27544;DHT22;17996;51.056;3.656;2023-06-10T05:25:17;22.70;99.90
27544;DHT22;17996;51.056;3.656;2023-06-10T05:27:43;22.70;99.90
27544;DHT22;17996;51.056;3.656;2023-06-10T05:30:10;22.70;99.90
27544;DHT22;17996;51.056;3.656;2023-06-10T05:32:36;22.80;99.90
27544;DHT22;17996;51.056;3.656;2023-06-10T05:35:01;22.80;99.90
27544;DHT22;17996;51.056;3.656;2023-06-10T05:37:29;22.80;99.90
27544;DHT22;17996;51.056;3.656;2023-06-10T05:39:55;22.80;99.90
27544;DHT22;17996;51.056;3.656;2023-06-10T05:42:20;22.80;99.90
27544;DHT22;17996;51.056;3.656;2023-06-10T05:44:46;22.80;99.90
27544;DHT22;17996;51.056;3.656;2023-06-10T05:47:11;22.80;99.90
27544;DHT22;17996;51.056;3.656;2023-06-10T05:49:37;22.80;99.90
27544;DHT22;17996;51.056;3.656;2023-06-10T05:52:03;22.80;99.90
27544;DHT22;17996;51.056;3.656;2023-06-10T05:54:29;22.80;99.90
27544;DHT22;17996;51.056;3.656;2023-06-10T05:56:55;22.90;99.90
27544;DHT22;17996;51.056;3.656;2023-06-10T05:59:20;22.90;99.90
27544;DHT22;17996;51.056;3.656;2023-06-10T06:01:48;22.90;99.90
27544;DHT22;17996;51.056;3.656;2023-06-10T06:04:15;22.90;99.90
27544;DHT22;17996;51.056;3.656;2023-06-10T06:06:41;22.90;99.90
27544;DHT22;17996;51.056;3.656;2023-06-10T06:09:06;22.90;99.90
27544;DHT22;17996;51.056;3.656;2023-06-10T06:11:33;22.90;99.90
27544;DHT22;17996;51.056;3.656;2023-06-10T06:13:59;22.90;99.90
27544;DHT22;17996;51.056;3.656;2023-06-10T06:16:25;23.00;99.90
27544;DHT22;17996;51.056;3.656;2023-06-10T06:18:50;22.90;99.90
27544;DHT22;17996;51.056;3.656;2023-06-10T06:21:16;22.90;99.90
27544;DHT22;17996;51.056;3.656;2023-06-10T06:23:42;23.00;99.90
27544;DHT22;17996;51.056;3.656;2023-06-10T06:26:07;23.00;99.90
27544;DHT22;17996;51.056;3.656;2023-06-10T06:28:33;23.10;99.90
27544;DHT22;17996;51.056;3.656;2023-06-10T06:30:59;23.10;99.90
27544;DHT22;17996;51.056;3.656;2023-06-10T06:33:25;23.10;99.90
27544;DHT22;17996;51.056;3.656;2023-06-10T06:35:51;23.20;99.90
27544;DHT22;17996;51.056;3.656;2023-06-10T06:38:18;23.20;99.90
27544;DHT22;17996;51.056;3.656;2023-06-10T06:40:44;23.20;99.90
27544;DHT22;17996;51.056;3.656;2023-06-10T06:43:09;23.20;99.90
27544;DHT22;17996;51.056;3.656;2023-06-10T06:45:35;23.20;99.90
27544;DHT22;17996;51.056;3.656;2023-06-10T06:48:01;23.20;99.90
27544;DHT22;17996;51.056;3.656;2023-06-10T06:50:26;23.20;99.90
27544;DHT22;17996;51.056;3.656;2023-06-10T06:52:52;23.30;99.90
27544;DHT22;17996;51.056;3.656;2023-06-10T06:55:17;23.30;99.90
27544;DHT22;17996;51.056;3.656;2023-06-10T06:57:44;23.40;99.90
27544;DHT22;17996;51.056;3.656;2023-06-10T07:00:10;23.40;99.90
27544;DHT22;17996;51.056;3.656;2023-06-10T07:02:36;23.40;99.90
27544;DHT22;17996;51.056;3.656;2023-06-10T07:05:01;23.40;99.90
27544;DHT22;17996;51.056;3.656;2023-06-10T07:07:28;23.40;99.90
27544;DHT22;17996;51.056;3.656;2023-06-10T07:09:54;23.40;99.90
27544;DHT22;17996;51.056;3.656;2023-06-10T07:12:20;23.50;99.90
27544;DHT22;17996;51.056;3.656;2023-06-10T07:14:49;23.50;99.90
27544;DHT22;17996;51.056;3.656;2023-06-10T07:17:15;23.50;99.90
27544;DHT22;17996;51.056;3.656;2023-06-10T07:19:40;23.50;99.90
27544;DHT22;17996;51.056;3.656;2023-06-10T07:22:06;23.50;99.90
27544;DHT22;17996;51.056;3.656;2023-06-10T07:24:32;23.50;99.90
27544;DHT22;17996;51.056;3.656;2023-06-10T07:26:58;23.60;99.90
27544;DHT22;17996;51.056;3.656;2023-06-10T07:29:23;23.60;99.90
27544;DHT22;17996;51.056;3.656;2023-06-10T07:31:49;23.60;99.90
27544;DHT22;17996;51.056;3.656;2023-06-10T07:34:15;23.60;99.90
27544;DHT22;17996;51.056;3.656;2023-06-10T07:36:40;23.70;99.90
27544;DHT22;17996;51.056;3.656;2023-06-10T07:39:06;23.70;99.90
27544;DHT22;17996;51.056;3.656;2023-06-10T07:41:32;23.70;99.90
27544;DHT22;17996;51.056;3.656;2023-06-10T07:43:58;23.80;99.90
27544;DHT22;17996;51.056;3.656;2023-06-10T07:46:24;23.80;99.90
27544;DHT22;17996;51.056;3.656;2023-06-10T07:48:50;23.80;99.90
27544;DHT22;17996;51.056;3.656;2023-06-10T07:51:16;23.90;99.90
27544;DHT22;17996;51.056;3.656;2023-06-10T07:53:42;23.90;99.90
27544;DHT22;17996;51.056;3.656;2023-06-10T07:56:08;23.90;99.90
27544;DHT22;17996;51.056;3.656;2023-06-10T07:58:33;23.90;99.90
27544;DHT22;17996;51.056;3.656;2023-06-10T08:00:59;24.00;99.90
27544;DHT22;17996;51.056;3.656;2023-06-10T08:03:25;24.00;99.90
27544;DHT22;17996;51.056;3.656;2023-06-10T08:05:50;24.00;99.90
27544;DHT22;17996;51.056;3.656;2023-06-10T08:08:16;24.00;99.90
27544;DHT22;17996;51.056;3.656;2023-06-10T08:10:41;24.00;99.90
27544;DHT22;17996;51.056;3.656;2023-06-10T08:13:08;24.10;99.90
27544;DHT22;17996;51.056;3.656;2023-06-10T08:15:34;24.10;99.90
27544;DHT22;17996;51.056;3.656;2023-06-10T08:17:59;24.20;99.90
27544;DHT22;17996;51.056;3.656;2023-06-10T08:20:25;24.20;99.90
27544;DHT22;17996;51.056;3.656;2023-06-10T08:22:51;24.20;99.90
27544;DHT22;17996;51.056;3.656;2023-06-10T08:25:17;24.30;99.90
27544;DHT22;17996;51.056;3.656;2023-06-10T08:27:43;24.30;99.90
27544;DHT22;17996;51.056;3.656;2023-06-10T08:30:09;24.30;99.90
27544;DHT22;17996;51.056;3.656;2023-06-10T08:32:36;24.30;99.90
27544;DHT22;17996;51.056;3.656;2023-06-10T08:35:02;24.30;99.90
27544;DHT22;17996;51.056;3.656;2023-06-10T08:37:28;24.30;99.90
27544;DHT22;17996;51.056;3.656;2023-06-10T08:39:54;24.30;99.90
27544;DHT22;17996;51.056;3.656;2023-06-10T08:42:28;24.40;99.90
27544;DHT22;17996;51.056;3.656;2023-06-10T08:44:55;24.40;99.90
27544;DHT22;17996;51.056;3.656;2023-06-10T08:47:23;24.40;99.90
27544;DHT22;17996;51.056;3.656;2023-06-10T08:49:49;24.40;99.90
27544;DHT22;17996;51.056;3.656;2023-06-10T08:52:16;24.40;99.90
27544;DHT22;17996;51.056;3.656;2023-06-10T08:55:04;24.50;99.90
27544;DHT22;17996;51.056;3.656;2023-06-10T08:57:31;24.60;99.90
27544;DHT22;17996;51.056;3.656;2023-06-10T08:59:57;24.60;99.90
27544;DHT22;17996;51.056;3.656;2023-06-10T09:02:27;24.60;99.90
27544;DHT22;17996;51.056;3.656;2023-06-10T09:04:53;24.60;99.90
27544;DHT22;17996;51.056;3.656;2023-06-10T09:07:19;24.70;99.90
27544;DHT22;17996;51.056;3.656;2023-06-10T09:09:45;24.70;99.90
27544;DHT22;17996;51.056;3.656;2023-06-10T09:12:14;24.80;99.90
27544;DHT22;17996;51.056;3.656;2023-06-10T09:14:42;24.90;99.90
27544;DHT22;17996;51.056;3.656;2023-06-10T09:17:07;24.90;99.90
27544;DHT22;17996;51.056;3.656;2023-06-10T09:19:33;24.90;99.90
27544;DHT22;17996;51.056;3.656;2023-06-10T09:22:00;24.90;99.90
27544;DHT22;17996;51.056;3.656;2023-06-10T09:24:26;24.90;99.90
27544;DHT22;17996;51.056;3.656;2023-06-10T09:27:06;24.90;99.90
27544;DHT22;17996;51.056;3.656;2023-06-10T09:29:55;24.90;99.90
27544;DHT22;17996;51.056;3.656;2023-06-10T09:32:21;25.00;99.90
27544;DHT22;17996;51.056;3.656;2023-06-10T09:34:48;25.00;99.90
27544;DHT22;17996;51.056;3.656;2023-06-10T09:37:22;25.00;99.90
27544;DHT22;17996;51.056;3.656;2023-06-10T09:40:07;25.10;99.90
27544;DHT22;17996;51.056;3.656;2023-06-10T09:42:35;25.20;99.90
27544;DHT22;17996;51.056;3.656;2023-06-10T09:45:05;25.20;99.90
27544;DHT22;17996;51.056;3.656;2023-06-10T09:47:31;25.20;99.90
27544;DHT22;17996;51.056;3.656;2023-06-10T09:49:57;25.20;99.90
27544;DHT22;17996;51.056;3.656;2023-06-10T09:52:24;25.30;99.90
27544;DHT22;17996;51.056;3.656;2023-06-10T09:54:51;25.30;99.90
27544;DHT22;17996;51.056;3.656;2023-06-10T09:57:18;25.40;99.90
27544;DHT22;17996;51.056;3.656;2023-06-10T09:59:45;25.40;99.90
27544;DHT22;17996;51.056;3.656;2023-06-10T10:02:15;25.40;99.90
27544;DHT22;17996;51.056;3.656;2023-06-10T10:04:41;25.50;99.90
27544;DHT22;17996;51.056;3.656;2023-06-10T10:07:08;25.50;99.90
27544;DHT22;17996;51.056;3.656;2023-06-10T10:09:38;25.60;99.90
27544;DHT22;17996;51.056;3.656;2023-06-10T10:12:09;25.60;99.90
27544;DHT22;17996;51.056;3.656;2023-06-10T10:14:36;25.60;99.90
27544;DHT22;17996;51.056;3.656;2023-06-10T10:17:04;25.70;99.90
27544;DHT22;17996;51.056;3.656;2023-06-10T10:19:40;25.70;99.90
27544;DHT22;17996;51.056;3.656;2023-06-10T10:22:18;25.80;99.90
27544;DHT22;17996;51.056;3.656;2023-06-10T10:24:52;25.80;99.90
27544;DHT22;17996;51.056;3.656;2023-06-10T10:27:26;25.80;99.90
27544;DHT22;17996;51.056;3.656;2023-06-10T10:29:55;25.80;99.90
27544;DHT22;17996;51.056;3.656;2023-06-10T10:32:35;25.80;99.90
27544;DHT22;17996;51.056;3.656;2023-06-10T10:35:06;25.90;99.90
27544;DHT22;17996;51.056;3.656;2023-06-10T10:37:33;25.80;99.90
27544;DHT22;17996;51.056;3.656;2023-06-10T10:40:00;25.80;99.90
27544;DHT22;17996;51.056;3.656;2023-06-10T10:42:28;25.90;99.90
27544;DHT22;17996;51.056;3.656;2023-06-10T10:44:56;26.00;99.90
27544;DHT22;17996;51.056;3.656;2023-06-10T10:47:22;26.00;99.90
27544;DHT22;17996;51.056;3.656;2023-06-10T10:49:52;26.00;99.90
27544;DHT22;17996;51.056;3.656;2023-06-10T10:52:25;26.10;99.90
27544;DHT22;17996;51.056;3.656;2023-06-10T10:54:53;26.10;99.90
27544;DHT22;17996;51.056;3.656;2023-06-10T10:57:24;26.10;99.90
27544;DHT22;17996;51.056;3.656;2023-06-10T10:59:57;26.20;99.90
27544;DHT22;17996;51.056;3.656;2023-06-10T11:02:37;26.20;99.90
27544;DHT22;17996;51.056;3.656;2023-06-10T11:05:07;26.20;99.90
27544;DHT22;17996;51.056;3.656;2023-06-10T11:07:34;26.30;99.90
27544;DHT22;17996;51.056;3.656;2023-06-10T11:10:07;26.30;99.90
27544;DHT22;17996;51.056;3.656;2023-06-10T11:12:54;26.40;99.90
27544;DHT22;17996;51.056;3.656;2023-06-10T11:15:30;26.40;99.90
27544;DHT22;17996;51.056;3.656;2023-06-10T11:21:02;26.40;99.90
27544;DHT22;17996;51.056;3.656;2023-06-10T11:23:32;26.50;99.90
27544;DHT22;17996;51.056;3.656;2023-06-10T11:31:42;26.50;99.90
27544;DHT22;17996;51.056;3.656;2023-06-10T11:34:08;26.60;99.90
27544;DHT22;17996;51.056;3.656;2023-06-10T11:36:37;26.60;99.90
27544;DHT22;17996;51.056;3.656;2023-06-10T11:39:06;26.60;99.90
27544;DHT22;17996;51.056;3.656;2023-06-10T11:41:32;26.70;99.90
27544;DHT22;17996;51.056;3.656;2023-06-10T11:44:04;26.80;99.90
27544;DHT22;17996;51.056;3.656;2023-06-10T11:46:33;26.80;99.90
27544;DHT22;17996;51.056;3.656;2023-06-10T11:49:00;26.90;99.90
27544;DHT22;17996;51.056;3.656;2023-06-10T11:51:35;26.90;99.90
27544;DHT22;17996;51.056;3.656;2023-06-10T11:54:02;27.00;99.90
27544;DHT22;17996;51.056;3.656;2023-06-10T11:56:29;27.00;99.90
27544;DHT22;17996;51.056;3.656;2023-06-10T11:59:06;27.10;99.90
27544;DHT22;17996;51.056;3.656;2023-06-10T12:01:43;27.10;99.90
27544;DHT22;17996;51.056;3.656;2023-06-10T12:04:11;27.20;99.90
27544;DHT22;17996;51.056;3.656;2023-06-10T12:06:47;27.20;99.90
27544;DHT22;17996;51.056;3.656;2023-06-10T12:11:51;27.30;99.90
27544;DHT22;17996;51.056;3.656;2023-06-10T12:19:55;27.30;99.90
27544;DHT22;17996;51.056;3.656;2023-06-10T12:22:22;27.30;99.90
27544;DHT22;17996;51.056;3.656;2023-06-10T12:25:03;27.30;99.90
27544;DHT22;17996;51.056;3.656;2023-06-10T12:27:37;27.40;99.90
27544;DHT22;17996;51.056;3.656;2023-06-10T12:30:04;27.40;99.60
27544;DHT22;17996;51.056;3.656;2023-06-10T12:32:45;27.40;99.50
27544;DHT22;17996;51.056;3.656;2023-06-10T12:35:20;27.50;99.90
27544;DHT22;17996;51.056;3.656;2023-06-10T12:40:29;27.50;99.90
27544;DHT22;17996;51.056;3.656;2023-06-10T12:42:57;27.60;99.90
27544;DHT22;17996;51.056;3.656;2023-06-10T12:45:39;27.60;99.90
27544;DHT22;17996;51.056;3.656;2023-06-10T12:48:09;27.60;99.90
27544;DHT22;17996;51.056;3.656;2023-06-10T12:50:40;27.70;99.70
27544;DHT22;17996;51.056;3.656;2023-06-10T12:53:06;27.70;99.20
27544;DHT22;17996;51.056;3.656;2023-06-10T12:55:33;27.70;99.00
27544;DHT22;17996;51.056;3.656;2023-06-10T12:57:59;27.80;99.40
27544;DHT22;17996;51.056;3.656;2023-06-10T13:00:25;27.80;99.90
27544;DHT22;17996;51.056;3.656;2023-06-10T13:02:54;27.90;99.90
27544;DHT22;17996;51.056;3.656;2023-06-10T13:05:20;27.90;99.90
27544;DHT22;17996;51.056;3.656;2023-06-10T13:07:47;27.90;99.90
27544;DHT22;17996;51.056;3.656;2023-06-10T13:10:14;27.90;99.90
27544;DHT22;17996;51.056;3.656;2023-06-10T13:12:40;28.00;99.80
27544;DHT22;17996;51.056;3.656;2023-06-10T13:15:06;28.10;99.90
27544;DHT22;17996;51.056;3.656;2023-06-10T13:17:32;28.10;99.90
27544;DHT22;17996;51.056;3.656;2023-06-10T13:19:59;28.20;99.70
27544;DHT22;17996;51.056;3.656;2023-06-10T13:22:26;28.20;98.60
27544;DHT22;17996;51.056;3.656;2023-06-10T13:24:52;28.30;98.60
27544;DHT22;17996;51.056;3.656;2023-06-10T13:27:18;28.30;99.80
27544;DHT22;17996;51.056;3.656;2023-06-10T13:29:43;28.40;99.40
27544;DHT22;17996;51.056;3.656;2023-06-10T13:32:09;28.40;99.90
27544;DHT22;17996;51.056;3.656;2023-06-10T13:34:35;28.50;99.80
27544;DHT22;17996;51.056;3.656;2023-06-10T13:37:01;28.60;99.90
27544;DHT22;17996;51.056;3.656;2023-06-10T13:39:29;28.60;99.90
27544;DHT22;17996;51.056;3.656;2023-06-10T13:41:54;28.50;99.90
27544;DHT22;17996;51.056;3.656;2023-06-10T13:44:20;28.50;99.90
27544;DHT22;17996;51.056;3.656;2023-06-10T13:46:46;28.50;99.80
27544;DHT22;17996;51.056;3.656;2023-06-10T13:49:12;28.40;98.80
27544;DHT22;17996;51.056;3.656;2023-06-10T13:51:37;28.30;98.10
27544;DHT22;17996;51.056;3.656;2023-06-10T13:54:04;28.40;97.50
27544;DHT22;17996;51.056;3.656;2023-06-10T13:56:30;28.40;98.20
27544;DHT22;17996;51.056;3.656;2023-06-10T13:58:56;28.60;98.60
27544;DHT22;17996;51.056;3.656;2023-06-10T14:01:21;28.70;99.00
27544;DHT22;17996;51.056;3.656;2023-06-10T14:03:47;28.80;99.20
27544;DHT22;17996;51.056;3.656;2023-06-10T14:06:12;28.90;98.10
27544;DHT22;17996;51.056;3.656;2023-06-10T14:08:40;29.00;97.30
27544;DHT22;17996;51.056;3.656;2023-06-10T14:11:06;29.00;97.50
27544;DHT22;17996;51.056;3.656;2023-06-10T14:13:32;29.10;98.30
27544;DHT22;17996;51.056;3.656;2023-06-10T14:15:59;29.10;98.20
27544;DHT22;17996;51.056;3.656;2023-06-10T14:18:28;29.10;96.80
27544;DHT22;17996;51.056;3.656;2023-06-10T14:20:53;29.10;96.70
27544;DHT22;17996;51.056;3.656;2023-06-10T14:23:19;29.20;98.20
27544;DHT22;17996;51.056;3.656;2023-06-10T14:25:46;29.30;98.10
27544;DHT22;17996;51.056;3.656;2023-06-10T14:28:12;29.30;98.30
27544;DHT22;17996;51.056;3.656;2023-06-10T14:30:39;29.30;99.60
27544;DHT22;17996;51.056;3.656;2023-06-10T14:33:05;29.20;99.80
27544;DHT22;17996;51.056;3.656;2023-06-10T14:35:31;29.30;99.80
27544;DHT22;17996;51.056;3.656;2023-06-10T14:37:56;29.50;99.90
27544;DHT22;17996;51.056;3.656;2023-06-10T14:40:22;29.70;99.60
27544;DHT22;17996;51.056;3.656;2023-06-10T14:42:49;29.90;99.90
27544;DHT22;17996;51.056;3.656;2023-06-10T14:45:15;30.10;99.20
27544;DHT22;17996;51.056;3.656;2023-06-10T14:47:41;30.30;99.00
27544;DHT22;17996;51.056;3.656;2023-06-10T14:50:07;30.40;98.30
27544;DHT22;17996;51.056;3.656;2023-06-10T14:52:32;30.50;98.20
27544;DHT22;17996;51.056;3.656;2023-06-10T14:54:58;30.50;97.90
27544;DHT22;17996;51.056;3.656;2023-06-10T14:57:24;30.30;97.90
27544;DHT22;17996;51.056;3.656;2023-06-10T14:59:55;30.20;98.80
27544;DHT22;17996;51.056;3.656;2023-06-10T15:02:22;30.10;99.10
27544;DHT22;17996;51.056;3.656;2023-06-10T15:04:48;30.10;99.90
27544;DHT22;17996;51.056;3.656;2023-06-10T15:07:13;30.20;99.40
27544;DHT22;17996;51.056;3.656;2023-06-10T15:09:41;30.40;99.90
27544;DHT22;17996;51.056;3.656;2023-06-10T15:12:08;30.50;99.90
27544;DHT22;17996;51.056;3.656;2023-06-10T15:14:34;30.70;99.90
27544;DHT22;17996;51.056;3.656;2023-06-10T15:16:59;30.90;99.90
27544;DHT22;17996;51.056;3.656;2023-06-10T15:19:26;31.00;99.90
27544;DHT22;17996;51.056;3.656;2023-06-10T15:21:52;31.10;99.90
27544;DHT22;17996;51.056;3.656;2023-06-10T15:24:20;31.20;99.90
27544;DHT22;17996;51.056;3.656;2023-06-10T15:26:45;31.30;99.90
27544;DHT22;17996;51.056;3.656;2023-06-10T15:29:11;31.50;99.90
27544;DHT22;17996;51.056;3.656;2023-06-10T15:31:37;31.70;99.70
27544;DHT22;17996;51.056;3.656;2023-06-10T15:34:03;31.80;98.00
27544;DHT22;17996;51.056;3.656;2023-06-10T15:36:29;32.00;96.80
27544;DHT22;17996;51.056;3.656;2023-06-10T15:39:01;32.00;98.70
27544;DHT22;17996;51.056;3.656;2023-06-10T15:41:29;32.00;99.60
27544;DHT22;17996;51.056;3.656;2023-06-10T15:43:57;32.10;99.80
27544;DHT22;17996;51.056;3.656;2023-06-10T15:46:26;32.20;99.10
27544;DHT22;17996;51.056;3.656;2023-06-10T15:48:51;32.40;98.60
27544;DHT22;17996;51.056;3.656;2023-06-10T15:51:19;32.50;98.60